createdAt,value
2018-12-30T00:03:55.968Z,101830.55
2018-12-30T00:06:28.968Z,101839.23
2018-12-30T00:09:01.684Z,101847.42
2018-12-30T00:11:34.741Z,101851.77
2018-12-30T00:14:08.288Z,101865.61
2018-12-30T00:16:44.861Z,101871.50
2018-12-30T00:19:17.921Z,101882.70
2018-12-30T00:21:50.778Z,101889.87
2018-12-30T00:24:23.952Z,101896.05
2018-12-30T00:26:56.933Z,101889.03
2018-12-30T00:29:29.926Z,101931.78
2018-12-30T00:32:02.353Z,101899.03
2018-12-30T00:34:35.274Z,101887.35
2018-12-30T00:37:08.169Z,101925.41
2018-12-30T00:39:41.093Z,101903.83
2018-12-30T00:42:14.365Z,101930.73
2018-12-30T00:44:48.065Z,101922.71
2018-12-30T00:47:21.114Z,101924.38
2018-12-30T00:49:54.085Z,101928.41
2018-12-30T00:52:26.304Z,101928.08
2018-12-30T00:54:59.989Z,101930.08
2018-12-30T00:57:33.220Z,101948.94
2018-12-30T01:00:06.537Z,101939.58
2018-12-30T01:02:39.238Z,101946.28
2018-12-30T01:05:16.037Z,101959.14
2018-12-30T01:07:46.922Z,101954.81
2018-12-30T01:10:17.720Z,101969.50
2018-12-30T01:12:50.916Z,101968.66
2018-12-30T01:15:23.710Z,101973.01
2018-12-30T01:17:57.076Z,101979.19
2018-12-30T01:20:31.505Z,101987.89
2018-12-30T01:23:01.965Z,102000.58
2018-12-30T01:25:35.126Z,102005.58
2018-12-30T01:28:05.992Z,101997.57
2018-12-30T01:30:39.078Z,102006.92
2018-12-30T01:33:11.848Z,102012.92
2018-12-30T01:35:50.843Z,102006.26
2018-12-30T01:38:23.795Z,102015.92
2018-12-30T01:41:00.717Z,102012.25
2018-12-30T01:43:37.785Z,102029.98
2018-12-30T01:46:10.681Z,102026.95
2018-12-30T01:48:47.309Z,102022.29
2018-12-30T01:51:19.676Z,102024.61
2018-12-30T01:53:52.349Z,102032.64
2018-12-30T01:56:25.394Z,102044.17
2018-12-30T01:59:02.567Z,102035.31
2018-12-30T02:01:38.944Z,102040.97
2018-12-30T02:04:12.353Z,102046.31
2018-12-30T02:14:16.947Z,102093.74
2018-12-30T02:16:49.458Z,102109.30
2018-12-30T02:19:22.197Z,102113.45
2018-12-30T02:21:54.409Z,102112.47
2018-12-30T02:24:25.637Z,102118.98
2018-12-30T02:26:58.577Z,102119.81
2018-12-30T02:29:30.797Z,102140.17
2018-12-30T02:32:04.028Z,102131.50
2018-12-30T02:34:40.794Z,102128.63
2018-12-30T02:37:14.153Z,102121.13
2018-12-30T02:39:47.073Z,102129.48
2018-12-30T02:42:19.905Z,102125.95
2018-12-30T02:44:52.920Z,102125.28
2018-12-30T02:47:23.809Z,102125.14
2018-12-30T02:49:56.795Z,102139.30
2018-12-30T02:52:29.592Z,102148.34
2018-12-30T02:55:02.312Z,102145.81
2018-12-30T02:57:35.412Z,102152.88
2018-12-30T03:00:08.694Z,102147.14
2018-12-30T03:02:41.570Z,102150.45
2018-12-30T03:05:14.569Z,102163.59
2018-12-30T03:07:47.456Z,102161.09
2018-12-30T03:10:20.490Z,102174.09
2018-12-30T03:12:53.535Z,102173.47
2018-12-30T03:15:26.651Z,102173.68
2018-12-30T03:17:59.607Z,102181.48
2018-12-30T03:20:32.765Z,102179.79
2018-12-30T03:23:05.791Z,102191.14
2018-12-30T03:25:39.984Z,102189.81
2018-12-30T03:28:13.043Z,102190.47
2018-12-30T03:30:46.014Z,102181.93
2018-12-30T03:33:22.935Z,102190.78
2018-12-30T03:35:55.105Z,102195.77
2018-12-30T03:38:27.977Z,102194.12
2018-12-30T03:41:00.751Z,102195.11
2018-12-30T03:43:36.798Z,102200.13
2018-12-30T03:46:09.904Z,102194.75
2018-12-30T03:48:46.848Z,102184.23
2018-12-30T03:51:19.042Z,102191.09
2018-12-30T03:53:55.174Z,102201.42
2018-12-30T03:56:28.031Z,102206.41
2018-12-30T03:58:58.972Z,102208.41
2018-12-30T04:01:32.064Z,102216.55
2018-12-30T04:04:04.920Z,102223.75
2018-12-30T04:06:41.897Z,102214.11
2018-12-30T04:09:14.762Z,102225.14
2018-12-30T04:11:46.854Z,102225.76
2018-12-30T04:14:19.023Z,102228.12
2018-12-30T04:16:52.049Z,102232.48
2018-12-30T04:19:24.373Z,102237.78
2018-12-30T04:21:57.493Z,102246.09
2018-12-30T04:24:34.288Z,102246.80
2018-12-30T04:27:07.362Z,102247.30
2018-12-30T04:29:40.339Z,102249.49
2018-12-30T04:32:13.529Z,102246.14
2018-12-30T04:34:47.463Z,102258.52
2018-12-30T04:37:19.632Z,102268.79
2018-12-30T04:39:52.582Z,102260.11
2018-12-30T04:42:24.775Z,102262.16
2018-12-30T04:44:56.875Z,102272.17
2018-12-30T04:47:29.818Z,102275.09
2018-12-30T04:50:06.069Z,102275.14
2018-12-30T04:52:38.798Z,102286.01
2018-12-30T04:55:11.794Z,102287.53
2018-12-30T04:57:45.236Z,102283.47
2018-12-30T05:00:18.090Z,102285.34
2018-12-30T05:02:50.867Z,102285.59
2018-12-30T05:05:23.697Z,102292.87
2018-12-30T05:07:55.861Z,102278.67
2018-12-30T05:10:28.813Z,102277.64
2018-12-30T05:12:59.904Z,102279.81
2018-12-30T05:15:32.615Z,102275.82
2018-12-30T05:18:04.805Z,102255.61
2018-12-30T05:20:37.728Z,102270.47
2018-12-30T05:23:10.533Z,102267.56
2018-12-30T05:25:43.545Z,102293.58
2018-12-30T05:28:16.625Z,102285.22
2018-12-30T05:30:49.476Z,102298.06
2018-12-30T05:33:22.436Z,102308.75
2018-12-30T05:35:55.316Z,102319.43
2018-12-30T05:38:28.392Z,102325.88
2018-12-30T05:41:01.076Z,102315.50
2018-12-30T05:43:33.216Z,102317.12
2018-12-30T05:46:09.446Z,102331.73
2018-12-30T05:48:42.421Z,102324.40
2018-12-30T05:51:14.584Z,102312.36
2018-12-30T05:53:47.534Z,102342.38
2018-12-30T05:56:20.720Z,102319.51
2018-12-30T05:58:53.506Z,102330.48
2018-12-30T06:01:25.697Z,102325.91
2018-12-30T06:03:58.686Z,102320.39
2018-12-30T06:06:31.406Z,102346.14
2018-12-30T06:09:04.058Z,102344.12
2018-12-30T06:11:36.480Z,102344.39
2018-12-30T06:14:08.571Z,102352.63
2018-12-30T06:16:41.433Z,102359.27
2018-12-30T06:19:17.459Z,102359.73
2018-12-30T06:21:50.532Z,102368.57
2018-12-30T06:24:23.354Z,102366.45
2018-12-30T06:26:56.365Z,102383.69
2018-12-30T06:29:29.127Z,102377.15
2018-12-30T06:32:01.958Z,102385.11
2018-12-30T06:34:34.123Z,102381.60
2018-12-30T06:37:06.447Z,102387.58
2018-12-30T06:39:39.472Z,102387.20
2018-12-30T06:42:12.261Z,102404.37
2018-12-30T06:44:45.094Z,102406.78
2018-12-30T06:47:17.973Z,102407.05
2018-12-30T06:49:50.177Z,102410.53
2018-12-30T06:52:23.129Z,102411.53
2018-12-30T06:54:55.329Z,102406.09
2018-12-30T06:57:28.051Z,102407.61
2018-12-30T07:00:00.389Z,102410.48
2018-12-30T07:02:32.569Z,102405.81
2018-12-30T07:05:06.029Z,102399.63
2018-12-30T07:07:38.529Z,102404.97
2018-12-30T07:10:11.621Z,102402.94
2018-12-30T07:12:44.361Z,102414.45
2018-12-30T07:15:17.242Z,102405.33
2018-12-30T07:17:50.225Z,102408.47
2018-12-30T07:20:23.075Z,102409.00
2018-12-30T07:33:03.591Z,102404.59
2018-12-30T07:35:36.687Z,102400.31
2018-12-30T07:38:09.230Z,102407.30
2018-12-30T07:40:41.345Z,102409.28
2018-12-30T07:43:14.393Z,102409.04
2018-12-30T07:45:47.455Z,102422.13
2018-12-30T07:48:20.067Z,102427.05
2018-12-30T07:50:52.289Z,102431.20
2018-12-30T07:53:25.473Z,102423.67
2018-12-30T07:55:58.497Z,102420.19
2018-12-30T07:58:31.344Z,102413.66
2018-12-30T08:01:04.525Z,102420.52
2018-12-30T08:03:35.666Z,102423.38
2018-12-30T08:06:12.370Z,102419.48
2018-12-30T08:08:45.282Z,102418.47
2018-12-30T08:11:21.933Z,102413.81
2018-12-30T08:13:54.513Z,102414.92
2018-12-30T08:16:27.605Z,102424.67
2018-12-30T08:19:00.650Z,102412.18
2018-12-30T08:21:33.755Z,102421.36
2018-12-30T08:24:06.740Z,102426.95
2018-12-30T08:26:42.917Z,102431.44
2018-12-30T08:29:15.530Z,102436.31
2018-12-30T08:31:52.289Z,102444.19
2018-12-30T08:39:28.968Z,102436.42
2018-12-30T08:42:01.692Z,102446.86
2018-12-30T08:44:34.566Z,102439.15
2018-12-30T08:47:07.715Z,102441.44
2018-12-30T08:49:40.556Z,102438.80
2018-12-30T08:52:17.645Z,102431.22
2018-12-30T08:54:49.834Z,102433.02
2018-12-30T08:57:22.942Z,102438.02
2018-12-30T08:59:55.765Z,102431.91
2018-12-30T09:02:28.772Z,102424.75
2018-12-30T09:05:01.694Z,102418.59
2018-12-30T09:07:34.634Z,102426.66
2018-12-30T09:10:08.013Z,102428.68
2018-12-30T09:12:40.417Z,102432.03
2018-12-30T09:15:13.288Z,102439.61
2018-12-30T09:17:45.525Z,102442.47
2018-12-30T09:20:18.375Z,102428.77
2018-12-30T09:22:54.721Z,102430.84
2018-12-30T09:25:26.993Z,102443.64
2018-12-30T09:27:59.237Z,102447.29
2018-12-30T09:30:31.314Z,102445.17
2018-12-30T09:33:04.281Z,102443.86
2018-12-30T09:35:37.175Z,102447.92
2018-12-30T09:38:10.436Z,102458.05
2018-12-30T09:53:23.654Z,102488.02
2018-12-30T09:55:56.661Z,102488.45
2018-12-30T09:58:30.757Z,102484.20
2018-12-30T10:01:03.468Z,102489.45
2018-12-30T10:03:36.449Z,102480.00
2018-12-30T10:06:09.246Z,102477.60
2018-12-30T10:08:42.214Z,102477.22
2018-12-30T10:11:18.456Z,102483.44
2018-12-30T10:13:51.508Z,102480.09
2018-12-30T10:16:24.340Z,102479.31
2018-12-30T10:19:01.409Z,102483.76
2018-12-30T10:21:38.681Z,102479.34
2018-12-30T10:24:11.665Z,102472.38
2018-12-30T10:26:44.725Z,102475.23
2018-12-30T10:29:16.916Z,102469.56
2018-12-30T10:31:49.946Z,102474.25
2018-12-30T10:34:22.922Z,102471.10
2018-12-30T10:36:55.173Z,102467.65
2018-12-30T10:39:28.344Z,102469.54
2018-12-30T10:42:05.128Z,102471.13
2018-12-30T10:44:38.273Z,102466.83
2018-12-30T10:47:11.317Z,102469.80
2018-12-30T10:49:48.382Z,102460.12
2018-12-30T10:52:21.054Z,102455.45
2018-12-30T10:54:57.809Z,102460.23
2018-12-30T10:57:30.027Z,102460.09
2018-12-30T11:00:03.418Z,102468.66
2018-12-30T11:02:35.905Z,102469.20
2018-12-30T11:05:08.483Z,102466.12
2018-12-30T11:07:41.092Z,102467.45
2018-12-30T11:10:17.371Z,102467.59
2018-12-30T11:12:54.439Z,102464.25
2018-12-30T11:15:26.635Z,102464.42
2018-12-30T11:17:59.617Z,102460.91
2018-12-30T11:20:32.673Z,102475.61
2018-12-30T11:23:05.732Z,102462.23
2018-12-30T11:25:42.771Z,102453.86
2018-12-30T11:28:20.581Z,102453.84
2018-12-30T11:30:52.889Z,102465.28
2018-12-30T11:33:25.150Z,102461.93
2018-12-30T11:36:02.315Z,102462.07
2018-12-30T11:38:35.472Z,102461.26
2018-12-30T11:41:06.473Z,102451.73
2018-12-30T11:43:39.540Z,102447.94
2018-12-30T11:46:11.898Z,102442.55
2018-12-30T11:48:44.744Z,102436.20
2018-12-30T11:51:17.726Z,102432.15
2018-12-30T11:53:50.216Z,102432.16
2018-12-30T11:58:54.541Z,102439.11
2018-12-30T12:01:27.415Z,102431.03
2018-12-30T12:04:04.389Z,102424.21
2018-12-30T12:06:41.409Z,102422.20
2018-12-30T12:09:14.405Z,102426.84
2018-12-30T12:11:47.630Z,102436.20
2018-12-30T12:14:20.477Z,102440.72
2018-12-30T12:16:54.418Z,102436.73
2018-12-30T12:19:27.750Z,102440.05
2018-12-30T12:22:00.157Z,102447.70
2018-12-30T12:24:36.565Z,102442.01
2018-12-30T12:27:09.636Z,102439.16
2018-12-30T12:29:42.949Z,102436.52
2018-12-30T12:32:15.685Z,102439.86
2018-12-30T12:34:48.549Z,102441.16
2018-12-30T12:37:21.493Z,102429.07
2018-12-30T12:39:54.289Z,102431.61
2018-12-30T12:42:26.456Z,102434.47
2018-12-30T12:44:59.533Z,102436.70
2018-12-30T12:47:32.525Z,102434.52
2018-12-30T12:50:05.713Z,102432.83
2018-12-30T12:52:38.457Z,102447.89
2018-12-30T12:55:11.654Z,102452.08
2018-12-30T12:57:44.629Z,102446.55
2018-12-30T13:00:21.815Z,102448.56
2018-12-30T13:02:58.876Z,102452.44
2018-12-30T13:05:32.957Z,102443.88
2018-12-30T13:08:07.095Z,102445.88
2018-12-30T13:10:40.528Z,102444.50
2018-12-30T13:13:13.475Z,102442.84
2018-12-30T13:16:55.805Z,102446.81
2018-12-30T13:19:28.197Z,102439.16
2018-12-30T13:22:01.373Z,102441.20
2018-12-30T13:24:39.912Z,102439.81
2018-12-30T13:27:12.158Z,102451.53
2018-12-30T13:29:45.015Z,102449.53
2018-12-30T13:32:17.987Z,102444.14
2018-12-30T13:34:50.854Z,102450.34
2018-12-30T13:37:23.613Z,102444.48
2018-12-30T13:39:56.730Z,102445.66
2018-12-30T13:42:29.625Z,102439.19
2018-12-30T13:45:02.575Z,102435.89
2018-12-30T13:47:36.034Z,102439.55
2018-12-30T13:50:09.029Z,102443.07
2018-12-30T13:52:41.915Z,102430.14
2018-12-30T13:55:14.864Z,102445.83
2018-12-30T13:57:51.658Z,102446.45
2018-12-30T14:00:24.448Z,102456.30
2018-12-30T14:03:01.660Z,102463.83
2018-12-30T14:05:34.049Z,102453.44
2018-12-30T14:08:07.073Z,102452.59
2018-12-30T14:10:40.117Z,102447.37
2018-12-30T14:13:13.373Z,102447.67
2018-12-30T14:15:50.918Z,102438.61
2018-12-30T14:18:20.894Z,102432.73
2018-12-30T14:20:53.889Z,102434.23
2018-12-30T14:23:26.933Z,102437.15
2018-12-30T14:25:59.894Z,102438.48
2018-12-30T14:28:33.006Z,102440.85
2018-12-30T14:31:05.810Z,102440.99
2018-12-30T14:33:38.634Z,102436.61
2018-12-30T14:36:11.597Z,102425.91
2018-12-30T14:38:42.189Z,102430.23
2018-12-30T14:41:15.210Z,102428.70
2018-12-30T14:43:48.393Z,102427.02
2018-12-30T14:46:21.398Z,102415.10
2018-12-30T14:48:54.351Z,102417.94
2018-12-30T14:51:25.438Z,102417.71
2018-12-30T14:54:01.885Z,102424.93
2018-12-30T14:56:34.857Z,102431.73
2018-12-30T14:59:07.916Z,102441.39
2018-12-30T15:01:41.174Z,102445.73
2018-12-30T15:04:14.605Z,102443.87
2018-12-30T15:06:47.128Z,102425.31
2018-12-30T15:09:19.355Z,102418.27
2018-12-30T15:11:52.315Z,102413.41
2018-12-30T15:14:25.482Z,102416.22
2018-12-30T15:16:59.474Z,102424.59
2018-12-30T15:19:32.726Z,102424.84
2018-12-30T15:22:05.563Z,102425.57
2018-12-30T15:24:38.705Z,102431.84
2018-12-30T15:27:11.987Z,102428.87
2018-12-30T15:29:44.543Z,102414.88
2018-12-30T15:32:17.660Z,102419.25
2018-12-30T15:34:50.905Z,102417.15
2018-12-30T15:37:23.757Z,102409.47
2018-12-30T15:39:57.150Z,102412.91
2018-12-30T15:42:30.170Z,102411.02
2018-12-30T15:45:07.337Z,102398.64
2018-12-30T15:47:39.890Z,102395.97
2018-12-30T15:50:13.594Z,102402.16
2018-12-30T15:52:46.037Z,102411.34
2018-12-30T15:55:19.787Z,102423.54
2018-12-30T15:57:52.998Z,102419.02
2018-12-30T16:00:26.357Z,102407.33
2018-12-30T16:02:59.141Z,102404.64
2018-12-30T16:05:32.258Z,102400.25
2018-12-30T16:08:05.380Z,102406.57
2018-12-30T16:10:42.578Z,102417.31
2018-12-30T16:13:15.406Z,102414.94
2018-12-30T16:15:48.414Z,102413.60
2018-12-30T16:18:20.914Z,102413.60
2018-12-30T16:20:54.257Z,102412.95
2018-12-30T16:23:27.029Z,102415.12
2018-12-30T16:25:59.937Z,102404.34
2018-12-30T16:28:32.803Z,102406.81
2018-12-30T16:31:05.833Z,102408.59
2018-12-30T16:33:39.005Z,102404.94
2018-12-30T16:36:12.353Z,102412.08
2018-12-30T16:38:44.974Z,102412.92
2018-12-30T16:41:18.223Z,102410.58
2018-12-30T16:43:51.021Z,102421.06
2018-12-30T16:46:23.923Z,102418.27
2018-12-30T16:48:56.872Z,102421.42
2018-12-30T16:51:30.198Z,102425.27
2018-12-30T16:54:02.885Z,102416.41
2018-12-30T16:56:35.893Z,102419.92
2018-12-30T16:59:07.277Z,102418.20
2018-12-30T17:01:40.339Z,102412.55
2018-12-30T17:04:13.426Z,102415.16
2018-12-30T17:06:46.442Z,102402.84
2018-12-30T17:09:19.577Z,102402.87
2018-12-30T17:11:52.193Z,102405.48
2018-12-30T17:14:24.863Z,102406.82
2018-12-30T17:16:57.710Z,102408.16
2018-12-30T17:19:30.276Z,102400.74
2018-12-30T17:22:03.741Z,102393.69
2018-12-30T17:24:36.202Z,102389.39
2018-12-30T17:27:09.200Z,102391.86
2018-12-30T17:29:41.938Z,102393.88
2018-12-30T17:32:14.690Z,102388.38
2018-12-30T17:34:47.982Z,102388.65
2018-12-30T17:37:21.185Z,102393.50
2018-12-30T17:39:54.113Z,102394.16
2018-12-30T17:42:27.301Z,102395.13
2018-12-30T17:45:00.026Z,102394.58
2018-12-30T17:47:33.121Z,102395.42
2018-12-30T17:50:07.329Z,102392.63
2018-12-30T17:52:40.325Z,102402.26
2018-12-30T17:55:13.233Z,102404.08
2018-12-30T17:57:46.367Z,102402.26
2018-12-30T18:00:19.334Z,102411.92
2018-12-30T18:02:54.621Z,102415.60
2018-12-30T18:05:28.189Z,102419.44
2018-12-30T18:08:01.230Z,102419.44
2018-12-30T18:10:34.285Z,102420.28
2018-12-30T18:13:07.248Z,102417.33
2018-12-30T18:15:44.034Z,102411.30
2018-12-30T18:18:17.092Z,102413.61
2018-12-30T18:20:49.970Z,102411.23
2018-12-30T18:23:22.865Z,102421.62
2018-12-30T18:25:58.731Z,102419.99
2018-12-30T18:28:31.062Z,102428.48
2018-12-30T18:31:03.962Z,102430.17
2018-12-30T18:33:37.496Z,102424.97
2018-12-30T18:36:10.233Z,102425.63
2018-12-30T18:38:43.186Z,102413.97
2018-12-30T18:41:16.660Z,102406.97
2018-12-30T18:43:50.174Z,102405.12
2018-12-30T18:46:23.275Z,102401.25
2018-12-30T18:48:56.390Z,102402.91
2018-12-30T18:51:29.772Z,102411.30
2018-12-30T18:54:03.441Z,102403.92
2018-12-30T18:56:36.598Z,102400.77
2018-12-30T18:59:09.853Z,102401.77
2018-12-30T19:01:42.907Z,102398.75
2018-12-30T19:04:16.005Z,102401.91
2018-12-30T19:06:48.857Z,102399.23
2018-12-30T19:09:21.761Z,102406.39
2018-12-30T19:11:54.710Z,102410.27
2018-12-30T19:14:31.512Z,102406.94
2018-12-30T19:17:04.409Z,102404.63
2018-12-30T19:19:37.325Z,102409.31
2018-12-30T19:22:10.286Z,102404.27
2018-12-30T19:24:43.069Z,102412.58
2018-12-30T19:27:15.773Z,102413.42
2018-12-30T19:29:48.784Z,102421.27
2018-12-30T19:32:21.665Z,102420.77
2018-12-30T19:34:54.629Z,102429.63
2018-12-30T19:37:31.454Z,102421.62
2018-12-30T19:40:04.616Z,102423.64
2018-12-30T19:42:37.558Z,102421.98
2018-12-30T19:45:10.601Z,102418.85
2018-12-30T19:47:47.546Z,102411.62
2018-12-30T19:50:21.057Z,102409.97
2018-12-30T19:52:57.917Z,102414.84
2018-12-30T19:55:31.522Z,102409.52
2018-12-30T19:58:08.300Z,102394.64
2018-12-30T20:00:41.186Z,102406.55
2018-12-30T20:03:14.362Z,102402.54
2018-12-30T20:05:51.253Z,102401.34
2018-12-30T20:08:24.161Z,102405.05
2018-12-30T20:10:57.598Z,102401.34
2018-12-30T20:13:35.009Z,102395.41
2018-12-30T20:16:08.237Z,102397.80
2018-12-30T20:18:41.864Z,102397.42
2018-12-30T20:21:15.431Z,102393.39
2018-12-30T20:23:48.382Z,102393.88
2018-12-30T20:26:29.810Z,102383.23
2018-12-30T20:29:00.865Z,102372.74
2018-12-30T20:31:33.798Z,102363.10
2018-12-30T20:34:07.053Z,102358.72
2018-12-30T20:36:40.109Z,102359.08
2018-12-30T20:39:17.133Z,102355.37
2018-12-30T20:41:49.973Z,102355.37
2018-12-30T20:44:22.779Z,102361.09
2018-12-30T20:46:55.934Z,102360.59
2018-12-30T20:49:28.881Z,102361.44
2018-12-30T20:52:01.937Z,102363.78
2018-12-30T20:54:35.038Z,102363.78
2018-12-30T20:57:08.049Z,102369.12
2018-12-30T20:59:41.057Z,102361.94
2018-12-30T21:02:13.896Z,102365.58
2018-12-30T21:04:46.798Z,102363.08
2018-12-30T21:07:23.825Z,102357.25
2018-12-30T21:09:56.521Z,102351.75
2018-12-30T21:12:33.641Z,102346.24
2018-12-30T21:15:07.096Z,102347.27
2018-12-30T21:17:38.455Z,102352.78
2018-12-30T21:20:15.275Z,102352.59
2018-12-30T21:22:48.125Z,102355.07
2018-12-30T21:25:25.026Z,102358.61
2018-12-30T21:28:01.935Z,102353.62
2018-12-30T21:30:34.216Z,102353.44
2018-12-30T21:33:11.737Z,102361.47
2018-12-30T21:35:48.402Z,102361.11
2018-12-30T21:38:21.830Z,102362.13
2018-12-30T21:40:54.427Z,102354.00
2018-12-30T21:43:27.734Z,102359.34
2018-12-30T21:46:00.813Z,102364.16
2018-12-30T21:48:38.035Z,102367.84
2018-12-30T21:51:11.007Z,102367.19
2018-12-30T21:53:48.101Z,102375.19
2018-12-30T21:56:21.033Z,102379.36
2018-12-30T21:58:53.953Z,102372.69
2018-12-30T22:01:27.078Z,102375.87
2018-12-30T22:04:00.279Z,102375.87
2018-12-30T22:06:37.136Z,102378.59
2018-12-30T22:09:10.002Z,102375.08
2018-12-30T22:11:42.961Z,102365.75
2018-12-30T22:14:16.190Z,102362.90
2018-12-30T22:16:49.754Z,102370.58
2018-12-30T22:19:27.161Z,102363.58
2018-12-30T22:22:00.536Z,102357.09
2018-12-30T22:24:33.734Z,102357.44
2018-12-30T22:27:10.617Z,102353.61
2018-12-30T22:29:43.752Z,102361.07
2018-12-30T22:32:20.601Z,102360.91
2018-12-30T22:34:57.945Z,102362.41
2018-12-30T22:37:28.681Z,102365.87
2018-12-30T22:40:06.347Z,102368.41
2018-12-30T22:42:37.284Z,102369.25
2018-12-30T22:45:14.500Z,102365.25
2018-12-30T22:47:51.358Z,102372.59
2018-12-30T22:50:22.274Z,102373.94
2018-12-30T22:52:54.981Z,102372.62
2018-12-30T22:55:28.345Z,102371.28
2018-12-30T22:58:00.966Z,102372.62
2018-12-30T23:00:39.106Z,102363.77
2018-12-30T23:03:11.906Z,102368.50
2018-12-30T23:05:44.994Z,102378.01
2018-12-30T23:08:15.881Z,102368.33
2018-12-30T23:10:53.401Z,102370.52
2018-12-30T23:13:25.994Z,102373.67
2018-12-30T23:15:59.184Z,102371.19
2018-12-30T23:18:32.245Z,102365.41
2018-12-30T23:21:05.137Z,102363.90
2018-12-30T23:23:41.863Z,102361.72
2018-12-30T23:26:15.088Z,102366.74
2018-12-30T23:28:48.099Z,102371.74
2018-12-30T23:31:25.282Z,102365.06
2018-12-30T23:33:58.325Z,102373.73
2018-12-30T23:36:31.464Z,102376.11
2018-12-30T23:39:05.642Z,102379.13
2018-12-30T23:41:38.220Z,102379.84
2018-12-30T23:44:11.453Z,102384.88
2018-12-30T23:46:44.359Z,102390.41
2018-12-30T23:49:16.666Z,102392.73
2018-12-30T23:51:49.757Z,102386.91
2018-12-30T23:54:22.753Z,102387.75
2018-12-30T23:56:55.704Z,102384.05
2018-12-30T23:59:28.443Z,102389.56
